createdAt,value
2023-03-12T00:02:25.072Z,76.36
2023-03-12T00:04:53.187Z,76.55
2023-03-12T00:07:20.949Z,76.45
2023-03-12T00:09:48.610Z,76.54
2023-03-12T00:12:16.276Z,76.45
2023-03-12T00:14:44.047Z,76.24
2023-03-12T00:17:11.802Z,76.42
2023-03-12T00:19:39.563Z,76.47
2023-03-12T00:22:07.337Z,76.37
2023-03-12T00:24:34.989Z,76.44
2023-03-12T00:27:02.657Z,76.56
2023-03-12T00:29:30.413Z,76.27
2023-03-12T00:31:58.082Z,76.49
2023-03-12T00:34:25.841Z,76.29
2023-03-12T00:36:53.501Z,76.30
2023-03-12T00:39:21.270Z,76.48
2023-03-12T00:41:48.934Z,76.26
2023-03-12T00:44:16.687Z,76.10
2023-03-12T00:46:44.539Z,76.11
2023-03-12T00:49:12.325Z,76.16
2023-03-12T00:51:40.080Z,76.16
2023-03-12T00:54:07.741Z,75.95
2023-03-12T00:56:35.405Z,75.95
2023-03-12T00:59:03.170Z,75.83
2023-03-12T01:01:30.934Z,75.97
2023-03-12T01:03:59.962Z,75.92
2023-03-12T01:06:27.796Z,76.15
2023-03-12T01:08:55.967Z,76.04
2023-03-12T01:11:23.630Z,76.09
2023-03-12T01:13:51.290Z,76.00
2023-03-12T01:16:19.100Z,75.91
2023-03-12T01:18:46.922Z,76.06
2023-03-12T01:21:14.994Z,76.04
2023-03-12T01:23:42.759Z,76.09
2023-03-12T01:26:10.521Z,76.21
2023-03-12T01:28:38.285Z,76.03
2023-03-12T01:31:06.015Z,76.19
2023-03-12T01:33:33.706Z,76.07
2023-03-12T01:36:01.469Z,76.09
2023-03-12T01:38:29.341Z,76.19
2023-03-12T01:40:56.999Z,76.55
2023-03-12T01:43:25.174Z,76.51
2023-03-12T01:45:52.980Z,76.42
2023-03-12T01:48:20.710Z,76.43
2023-03-12T01:50:48.472Z,76.62
2023-03-12T01:53:16.655Z,76.44
2023-03-12T01:55:44.606Z,76.33
2023-03-12T01:58:12.264Z,76.54
2023-03-12T02:00:40.034Z,76.72
2023-03-12T02:03:07.904Z,76.60
2023-03-12T02:05:35.661Z,76.64
2023-03-12T02:08:03.942Z,76.80
2023-03-12T02:10:31.607Z,76.66
2023-03-12T02:12:59.367Z,76.65
2023-03-12T02:15:28.046Z,76.81
2023-03-12T02:17:55.698Z,76.73
2023-03-12T02:20:23.589Z,76.91
2023-03-12T02:22:51.357Z,77.02
2023-03-12T02:25:19.112Z,76.97
2023-03-12T02:27:46.875Z,76.73
2023-03-12T02:30:17.708Z,76.56
2023-03-12T02:32:45.424Z,76.57
2023-03-12T02:35:13.340Z,76.47
2023-03-12T02:37:40.997Z,76.49
2023-03-12T02:40:10.095Z,76.45
2023-03-12T02:42:37.742Z,76.22
2023-03-12T02:45:05.434Z,76.30
2023-03-12T02:47:33.180Z,76.44
2023-03-12T02:50:00.948Z,76.47
2023-03-12T02:52:30.757Z,76.52
2023-03-12T02:54:58.421Z,76.36
2023-03-12T02:57:26.080Z,76.27
2023-03-12T02:59:53.733Z,76.37
2023-03-12T03:02:21.403Z,76.45
2023-03-12T03:04:49.384Z,76.37
2023-03-12T03:07:17.136Z,76.43
2023-03-12T03:09:44.801Z,76.12
2023-03-12T03:12:12.568Z,76.06
2023-03-12T03:14:40.326Z,76.21
2023-03-12T03:17:08.088Z,76.16
2023-03-12T03:19:35.732Z,76.18
2023-03-12T03:22:03.516Z,76.15
2023-03-12T03:24:31.282Z,75.97
2023-03-12T03:26:59.046Z,75.72
2023-03-12T03:29:26.718Z,75.70
2023-03-12T03:31:54.477Z,75.87
2023-03-12T03:34:22.237Z,75.92
2023-03-12T03:36:49.997Z,75.53
2023-03-12T03:39:17.786Z,75.41
2023-03-12T03:41:47.467Z,75.47
2023-03-12T03:44:15.132Z,75.14
2023-03-12T03:46:42.806Z,75.37
2023-03-12T03:49:10.456Z,75.26
2023-03-12T03:51:38.233Z,75.06
2023-03-12T03:54:05.999Z,75.21
2023-03-12T03:56:33.645Z,75.30
2023-03-12T03:59:02.241Z,75.21
2023-03-12T04:01:30.200Z,75.17
2023-03-12T04:03:57.971Z,75.36
2023-03-12T04:06:25.723Z,75.53
2023-03-12T04:08:53.488Z,75.65
2023-03-12T04:11:21.278Z,75.80
2023-03-12T04:13:49.015Z,75.98
2023-03-12T04:16:16.850Z,76.17
2023-03-12T04:18:44.746Z,76.18
2023-03-12T04:21:12.407Z,76.37
2023-03-12T04:23:40.136Z,76.77
2023-03-12T04:26:07.936Z,76.97
2023-03-12T04:28:35.717Z,77.06
2023-03-12T04:31:03.499Z,77.33
2023-03-12T04:33:31.344Z,77.62
2023-03-12T04:35:59.072Z,77.44
2023-03-12T04:38:26.757Z,77.65
2023-03-12T04:40:54.420Z,77.67
2023-03-12T04:43:22.184Z,77.83
2023-03-12T04:45:49.819Z,78.02
2023-03-12T04:48:17.510Z,78.11
2023-03-12T04:50:45.274Z,77.93
2023-03-12T04:53:13.052Z,78.03
2023-03-12T04:55:40.804Z,78.27
2023-03-12T04:58:08.567Z,78.35
2023-03-12T05:00:36.232Z,78.46
2023-03-12T05:03:04.018Z,78.37
2023-03-12T05:05:31.761Z,78.32
2023-03-12T05:07:59.931Z,78.31
2023-03-12T05:10:27.696Z,78.33
2023-03-12T05:12:55.459Z,78.19
2023-03-12T05:15:23.222Z,78.12
2023-03-12T05:17:50.912Z,77.92
2023-03-12T05:20:18.657Z,77.85
2023-03-12T05:22:46.421Z,77.89
2023-03-12T05:25:14.594Z,77.91
2023-03-12T05:27:42.557Z,77.90
2023-03-12T05:30:10.263Z,77.79
2023-03-12T05:32:38.053Z,77.49
2023-03-12T05:35:05.752Z,77.51
2023-03-12T05:37:33.516Z,77.56
2023-03-12T05:40:01.171Z,77.70
2023-03-12T05:42:28.936Z,77.58
2023-03-12T05:44:56.597Z,77.51
2023-03-12T05:47:24.363Z,77.44
2023-03-12T05:49:52.150Z,77.52
2023-03-12T05:52:19.890Z,77.51
2023-03-12T05:54:47.649Z,77.44
2023-03-12T05:57:15.412Z,77.25
2023-03-12T05:59:43.076Z,77.23
2023-03-12T06:02:10.885Z,77.34
2023-03-12T06:04:38.700Z,77.23
2023-03-12T06:07:06.479Z,77.23
2023-03-12T06:09:34.227Z,77.24
2023-03-12T06:12:01.891Z,76.96
2023-03-12T06:14:30.169Z,76.78
2023-03-12T06:16:57.922Z,76.97
2023-03-12T06:19:25.706Z,76.85
2023-03-12T06:21:53.463Z,76.91
2023-03-12T06:24:21.225Z,76.70
2023-03-12T06:26:48.888Z,76.78
2023-03-12T06:29:16.565Z,76.75
2023-03-12T06:31:44.551Z,76.99
2023-03-12T06:34:12.481Z,76.80
2023-03-12T06:36:40.142Z,76.77
2023-03-12T06:39:09.238Z,76.73
2023-03-12T06:41:37.119Z,76.46
2023-03-12T06:44:06.527Z,76.48
2023-03-12T06:46:34.559Z,76.49
2023-03-12T06:49:02.450Z,76.36
2023-03-12T06:51:30.211Z,76.46
2023-03-12T06:53:57.939Z,76.18
2023-03-12T06:56:25.840Z,75.88
2023-03-12T06:58:53.501Z,76.23
2023-03-12T07:01:21.162Z,76.03
2023-03-12T07:03:48.930Z,76.28
2023-03-12T07:06:16.692Z,76.20
2023-03-12T07:08:44.466Z,75.71
2023-03-12T07:11:12.222Z,75.75
2023-03-12T07:13:40.090Z,75.29
2023-03-12T07:16:07.913Z,74.90
2023-03-12T07:18:35.725Z,74.63
2023-03-12T07:21:03.385Z,74.61
2023-03-12T07:23:31.151Z,74.12
2023-03-12T07:25:58.913Z,74.24
2023-03-12T07:28:26.585Z,74.01
2023-03-12T07:30:54.339Z,73.62
2023-03-12T07:33:22.292Z,74.18
2023-03-12T07:35:51.732Z,74.40
2023-03-12T07:38:19.804Z,73.71
2023-03-12T07:40:47.926Z,73.44
2023-03-12T07:43:15.822Z,73.18
2023-03-12T07:45:43.599Z,72.93
2023-03-12T07:48:11.606Z,73.45
2023-03-12T07:50:39.417Z,73.08
2023-03-12T07:53:07.082Z,72.53
2023-03-12T07:55:34.914Z,71.92
2023-03-12T07:58:02.739Z,71.68
2023-03-12T08:00:30.795Z,71.86
2023-03-12T08:02:58.785Z,71.79
2023-03-12T08:05:27.277Z,71.62
2023-03-12T08:07:55.095Z,71.46
2023-03-12T08:10:22.901Z,71.48
2023-03-12T08:12:50.860Z,71.00
2023-03-12T08:15:18.691Z,69.35
2023-03-12T08:17:46.654Z,69.79
2023-03-12T08:20:14.426Z,69.95
2023-03-12T08:22:42.193Z,69.39
2023-03-12T08:25:09.959Z,69.09
2023-03-12T08:27:37.715Z,69.14
2023-03-12T08:30:05.961Z,68.48
2023-03-12T08:32:33.942Z,68.73
2023-03-12T08:35:01.826Z,68.41
2023-03-12T08:37:30.513Z,68.02
2023-03-12T08:39:58.174Z,67.81
2023-03-12T08:42:25.838Z,68.20
2023-03-12T08:44:53.598Z,68.06
2023-03-12T08:47:21.280Z,67.84
2023-03-12T08:49:48.930Z,68.27
2023-03-12T08:52:17.099Z,68.24
2023-03-12T08:54:44.864Z,67.48
2023-03-12T08:57:12.627Z,67.24
2023-03-12T08:59:40.294Z,66.55
2023-03-12T09:02:07.952Z,67.43
2023-03-12T09:04:35.634Z,66.20
2023-03-12T09:07:03.485Z,67.40
2023-03-12T09:09:31.245Z,66.73
2023-03-12T09:11:58.905Z,66.36
2023-03-12T09:17:14.198Z,67.37
2023-03-12T09:19:41.964Z,66.76
2023-03-12T09:22:09.622Z,66.13
2023-03-12T09:24:37.384Z,66.48
2023-03-12T09:27:05.044Z,65.43
2023-03-12T09:29:32.816Z,64.69
2023-03-12T09:32:00.468Z,64.11
2023-03-12T09:34:28.105Z,64.45
2023-03-12T09:36:55.891Z,64.66
2023-03-12T09:39:23.779Z,64.20
2023-03-12T09:41:51.726Z,64.47
2023-03-12T09:44:19.592Z,64.25
2023-03-12T09:46:47.357Z,63.25
2023-03-12T09:49:15.023Z,63.35
2023-03-12T09:51:42.789Z,63.57
2023-03-12T09:54:10.547Z,63.63
2023-03-12T09:56:38.209Z,64.10
2023-03-12T09:59:05.870Z,64.50
2023-03-12T10:01:33.635Z,64.02
2023-03-12T10:04:01.298Z,64.35
2023-03-12T10:06:29.806Z,63.58
2023-03-12T10:08:57.646Z,64.31
2023-03-12T10:11:25.408Z,63.82
2023-03-12T10:13:53.173Z,62.80
2023-03-12T10:16:20.991Z,62.67
2023-03-12T10:18:49.005Z,62.46
2023-03-12T10:21:16.874Z,62.70
2023-03-12T10:23:44.558Z,62.80
2023-03-12T10:26:12.299Z,63.28
2023-03-12T10:28:40.988Z,63.00
2023-03-12T10:31:08.694Z,63.19
2023-03-12T10:33:36.517Z,63.56
2023-03-12T10:36:04.210Z,63.72
2023-03-12T10:38:31.943Z,63.47
2023-03-12T10:40:59.701Z,64.04
2023-03-12T10:43:27.471Z,63.94
2023-03-12T10:45:55.355Z,63.51
2023-03-12T10:48:23.211Z,63.75
2023-03-12T10:50:50.963Z,63.76
2023-03-12T10:53:18.623Z,63.42
2023-03-12T10:55:46.288Z,63.79
2023-03-12T10:58:13.947Z,62.92
2023-03-12T11:00:41.614Z,62.64
2023-03-12T11:03:09.270Z,62.40
2023-03-12T11:05:37.059Z,63.02
2023-03-12T11:08:05.003Z,63.27
2023-03-12T11:10:32.984Z,62.41
2023-03-12T11:13:00.838Z,62.46
2023-03-12T11:15:29.421Z,63.24
2023-03-12T11:17:57.084Z,63.17
2023-03-12T11:20:24.846Z,61.36
2023-03-12T11:22:52.487Z,61.92
2023-03-12T11:25:20.155Z,62.01
2023-03-12T11:27:47.830Z,62.11
2023-03-12T11:30:15.657Z,62.36
2023-03-12T11:32:43.661Z,62.63
2023-03-12T11:35:11.647Z,61.66
2023-03-12T11:37:40.556Z,61.68
2023-03-12T11:40:10.234Z,62.19
2023-03-12T11:42:37.900Z,61.71
2023-03-12T11:45:05.976Z,61.59
2023-03-12T11:47:33.864Z,61.88
2023-03-12T11:50:01.604Z,60.77
2023-03-12T11:52:29.367Z,60.00
2023-03-12T11:54:57.026Z,59.49
2023-03-12T11:57:24.686Z,58.57
2023-03-12T11:59:52.453Z,59.47
2023-03-12T12:02:20.678Z,59.66
2023-03-12T12:04:48.494Z,60.51
2023-03-12T12:07:16.155Z,58.91
2023-03-12T12:09:43.924Z,57.69
2023-03-12T12:12:11.691Z,57.41
2023-03-12T12:14:39.554Z,58.31
2023-03-12T12:17:07.310Z,58.42
2023-03-12T12:19:35.065Z,58.54
2023-03-12T12:22:02.956Z,58.15
2023-03-12T12:24:30.808Z,57.99
2023-03-12T12:26:58.573Z,58.95
2023-03-12T12:29:26.191Z,58.91
2023-03-12T12:31:53.903Z,58.30
2023-03-12T12:34:21.659Z,57.72
2023-03-12T12:36:49.422Z,57.52
2023-03-12T12:39:17.083Z,57.58
2023-03-12T12:41:44.784Z,57.40
2023-03-12T12:44:12.722Z,56.36
2023-03-12T12:46:40.488Z,56.35
2023-03-12T12:49:08.256Z,55.22
2023-03-12T12:51:36.110Z,55.61
2023-03-12T12:54:03.893Z,56.81
2023-03-12T12:56:31.741Z,56.70
2023-03-12T12:58:59.509Z,57.27
2023-03-12T13:01:27.960Z,57.49
2023-03-12T13:03:55.979Z,56.26
2023-03-12T13:06:23.720Z,56.65
2023-03-12T13:08:51.538Z,56.20
2023-03-12T13:11:20.790Z,56.51
2023-03-12T13:13:49.571Z,57.12
2023-03-12T13:16:17.278Z,57.19
2023-03-12T13:18:45.111Z,57.13
2023-03-12T13:21:12.974Z,55.45
2023-03-12T13:23:40.936Z,56.84
2023-03-12T13:26:08.710Z,56.37
2023-03-12T13:28:36.683Z,55.21
2023-03-12T13:31:04.479Z,54.99
2023-03-12T13:33:32.202Z,55.31
2023-03-12T13:35:59.890Z,56.05
2023-03-12T13:38:31.641Z,55.47
2023-03-12T13:41:02.474Z,55.85
2023-03-12T13:43:30.331Z,56.79
2023-03-12T13:45:58.010Z,55.34
2023-03-12T13:48:26.158Z,54.65
2023-03-12T13:50:53.766Z,54.59
2023-03-12T13:53:21.587Z,55.10
2023-03-12T13:55:49.241Z,55.47
2023-03-12T13:58:17.111Z,55.40
2023-03-12T14:00:44.774Z,56.30
2023-03-12T14:03:12.535Z,55.77
2023-03-12T14:05:40.194Z,54.38
2023-03-12T14:08:09.904Z,54.13
2023-03-12T14:10:37.566Z,53.87
2023-03-12T14:13:05.226Z,53.04
2023-03-12T14:15:33.226Z,53.08
2023-03-12T14:18:00.965Z,54.73
2023-03-12T14:20:28.722Z,54.26
2023-03-12T14:22:56.487Z,53.84
2023-03-12T14:25:24.148Z,53.89
2023-03-12T14:27:51.928Z,53.13
2023-03-12T14:30:19.786Z,52.16
2023-03-12T14:32:48.297Z,51.94
2023-03-12T14:35:16.669Z,52.06
2023-03-12T14:37:44.641Z,52.04
2023-03-12T14:40:12.485Z,52.62
2023-03-12T14:42:40.451Z,52.68
2023-03-12T14:45:08.108Z,52.67
2023-03-12T14:47:35.768Z,52.80
2023-03-12T14:50:04.169Z,53.26
2023-03-12T14:52:36.014Z,53.39
2023-03-12T14:55:04.795Z,53.39
2023-03-12T14:57:32.556Z,53.71
2023-03-12T15:00:00.525Z,53.89
2023-03-12T15:02:28.184Z,54.52
2023-03-12T15:04:56.082Z,54.90
2023-03-12T15:07:24.021Z,55.02
2023-03-12T15:09:51.786Z,54.48
2023-03-12T15:12:19.448Z,53.97
2023-03-12T15:14:49.610Z,54.05
2023-03-12T15:17:17.456Z,54.43
2023-03-12T15:19:45.200Z,55.13
2023-03-12T15:22:12.959Z,55.46
2023-03-12T15:24:41.031Z,55.32
2023-03-12T15:27:08.699Z,55.11
2023-03-12T15:29:36.355Z,54.63
2023-03-12T15:32:04.432Z,54.91
2023-03-12T15:34:33.161Z,54.97
2023-03-12T15:37:01.182Z,55.01
2023-03-12T15:39:29.928Z,55.06
2023-03-12T15:41:57.763Z,55.60
2023-03-12T15:44:25.610Z,55.97
2023-03-12T15:46:53.459Z,56.23
2023-03-12T15:49:21.333Z,55.89
2023-03-12T15:51:49.015Z,55.83
2023-03-12T15:54:16.760Z,55.77
2023-03-12T15:56:44.523Z,55.67
2023-03-12T15:59:12.288Z,56.36
2023-03-12T16:01:39.984Z,56.24
2023-03-12T16:04:07.822Z,56.11
2023-03-12T16:06:36.706Z,56.61
2023-03-12T16:09:04.338Z,56.40
2023-03-12T16:11:32.352Z,56.16
2023-03-12T16:14:00.311Z,56.77
2023-03-12T16:16:28.123Z,56.92
2023-03-12T16:18:55.953Z,56.75
2023-03-12T16:21:23.700Z,57.00
2023-03-12T16:23:51.470Z,57.04
2023-03-12T16:26:19.850Z,57.07
2023-03-12T16:28:47.608Z,57.08
2023-03-12T16:31:15.472Z,57.38
2023-03-12T16:33:44.061Z,57.01
2023-03-12T16:36:12.542Z,56.98
2023-03-12T16:38:40.302Z,57.38
2023-03-12T16:41:07.969Z,57.36
2023-03-12T16:43:35.624Z,57.50
2023-03-12T16:46:04.134Z,57.50
2023-03-12T16:48:32.087Z,57.71
2023-03-12T16:51:00.137Z,57.51
2023-03-12T16:53:28.112Z,57.72
2023-03-12T16:55:55.779Z,57.95
2023-03-12T16:58:24.251Z,57.83
2023-03-12T17:00:51.934Z,57.66
2023-03-12T17:03:19.780Z,58.08
2023-03-12T17:05:47.542Z,58.12
2023-03-12T17:08:15.853Z,58.10
2023-03-12T17:10:43.787Z,58.33
2023-03-12T17:13:11.699Z,57.91
2023-03-12T17:15:39.692Z,58.36
2023-03-12T17:18:09.691Z,58.14
2023-03-12T17:20:37.710Z,58.10
2023-03-12T17:23:05.370Z,58.00
2023-03-12T17:25:33.150Z,58.15
2023-03-12T17:28:00.904Z,58.26
2023-03-12T17:30:28.560Z,58.26
2023-03-12T17:32:57.932Z,58.65
2023-03-12T17:35:25.642Z,58.61
2023-03-12T17:37:53.391Z,58.35
2023-03-12T17:40:21.158Z,58.63
2023-03-12T17:42:48.917Z,58.25
2023-03-12T17:45:16.798Z,58.26
2023-03-12T17:47:44.597Z,58.57
2023-03-12T17:50:12.534Z,58.56
2023-03-12T17:52:40.283Z,58.54
2023-03-12T17:55:10.444Z,58.52
2023-03-12T17:57:39.524Z,58.85
2023-03-12T18:00:11.876Z,58.81
2023-03-12T18:02:39.633Z,58.45
2023-03-12T18:05:07.787Z,58.82
2023-03-12T18:07:35.679Z,59.21
2023-03-12T18:10:03.438Z,58.61
2023-03-12T18:12:31.100Z,58.54
2023-03-12T18:14:58.759Z,58.84
2023-03-12T18:17:26.420Z,58.90
2023-03-12T18:19:54.086Z,58.86
2023-03-12T18:22:21.949Z,58.82
2023-03-12T18:24:49.813Z,58.94
2023-03-12T18:27:17.578Z,59.18
2023-03-12T18:29:45.320Z,59.32
2023-03-12T18:32:13.620Z,59.47
2023-03-12T18:34:42.616Z,59.65
2023-03-12T18:37:10.382Z,60.17
2023-03-12T18:39:38.041Z,60.43
2023-03-12T18:42:05.811Z,60.65
2023-03-12T18:44:33.579Z,60.98
2023-03-12T18:47:01.384Z,60.64
2023-03-12T18:49:29.405Z,60.40
2023-03-12T18:51:57.168Z,60.61
2023-03-12T18:54:24.999Z,60.63
2023-03-12T18:56:52.799Z,60.40
2023-03-12T18:59:20.668Z,60.77
2023-03-12T19:01:48.326Z,60.80
2023-03-12T19:04:16.041Z,60.92
2023-03-12T19:06:50.734Z,61.04
2023-03-12T19:09:19.713Z,61.00
2023-03-12T19:11:48.148Z,61.06
2023-03-12T19:14:16.463Z,61.31
2023-03-12T19:16:44.232Z,61.51
2023-03-12T19:19:11.998Z,61.56
2023-03-12T19:21:39.660Z,61.58
2023-03-12T19:24:08.015Z,61.44
2023-03-12T19:26:36.359Z,61.53
2023-03-12T19:29:04.084Z,61.86
2023-03-12T19:31:31.900Z,61.95
2023-03-12T19:33:59.705Z,61.93
2023-03-12T19:36:27.371Z,61.88
2023-03-12T19:38:55.742Z,62.11
2023-03-12T19:41:23.517Z,62.05
2023-03-12T19:43:51.170Z,61.94
2023-03-12T19:46:18.981Z,62.17
2023-03-12T19:48:46.694Z,61.96
2023-03-12T19:51:14.357Z,62.17
2023-03-12T19:53:42.124Z,62.10
2023-03-12T19:56:10.005Z,62.16
2023-03-12T19:58:37.750Z,62.41
2023-03-12T20:01:05.409Z,62.16
2023-03-12T20:03:33.370Z,62.49
2023-03-12T20:06:01.270Z,62.40
2023-03-12T20:08:32.096Z,62.69
2023-03-12T20:10:59.847Z,62.18
2023-03-12T20:13:27.508Z,62.62
2023-03-12T20:15:55.271Z,62.59
2023-03-12T20:18:22.931Z,62.41
2023-03-12T20:20:50.699Z,62.42
2023-03-12T20:23:18.463Z,62.46
2023-03-12T20:25:46.223Z,62.38
2023-03-12T20:28:14.093Z,62.71
2023-03-12T20:30:41.855Z,63.11
2023-03-12T20:33:09.615Z,62.76
2023-03-12T20:35:37.334Z,62.68
2023-03-12T20:38:05.159Z,62.62
2023-03-12T20:40:32.815Z,62.64
2023-03-12T20:43:05.004Z,62.22
2023-03-12T20:45:35.268Z,62.16
2023-03-12T20:48:03.006Z,61.72
2023-03-12T20:50:31.340Z,61.98
2023-03-12T20:52:59.929Z,61.97
2023-03-12T20:55:27.735Z,62.25
2023-03-12T20:57:55.453Z,62.40
2023-03-12T21:00:23.217Z,62.51
2023-03-12T21:02:50.923Z,62.70
2023-03-12T21:05:18.747Z,62.49
2023-03-12T21:07:46.408Z,62.42
2023-03-12T21:10:16.634Z,62.34
2023-03-12T21:12:44.292Z,62.70
2023-03-12T21:15:12.780Z,62.73
2023-03-12T21:17:40.768Z,62.50
2023-03-12T21:20:11.269Z,62.52
2023-03-12T21:22:39.042Z,62.64
2023-03-12T21:25:06.697Z,62.52
2023-03-12T21:27:48.068Z,62.63
2023-03-12T21:30:17.994Z,62.60
2023-03-12T21:32:45.735Z,62.66
2023-03-12T21:35:13.441Z,62.27
2023-03-12T21:37:41.397Z,62.57
2023-03-12T21:40:09.473Z,62.22
2023-03-12T21:42:37.124Z,62.26
2023-03-12T21:45:04.899Z,62.37
2023-03-12T21:47:32.546Z,62.18
2023-03-12T21:50:00.211Z,62.28
2023-03-12T21:52:27.871Z,62.33
2023-03-12T21:54:55.533Z,62.39
2023-03-12T21:57:23.191Z,62.41
2023-03-12T21:59:50.851Z,62.11
2023-03-12T22:02:18.515Z,62.15
2023-03-12T22:04:46.235Z,62.11
2023-03-12T22:07:14.048Z,61.89
2023-03-12T22:09:41.703Z,61.68
2023-03-12T22:12:09.470Z,61.40
2023-03-12T22:14:37.440Z,61.56
2023-03-12T22:17:05.328Z,61.25
2023-03-12T22:19:33.067Z,60.89
2023-03-12T22:22:00.830Z,60.79
2023-03-12T22:24:28.493Z,60.80
2023-03-12T22:26:56.263Z,60.81
2023-03-12T22:29:24.019Z,60.46
2023-03-12T22:31:51.679Z,60.68
2023-03-12T22:34:19.444Z,60.34
2023-03-12T22:36:47.116Z,60.27
2023-03-12T22:39:14.766Z,59.96
2023-03-12T22:41:42.735Z,59.52
2023-03-12T22:44:10.396Z,59.52
2023-03-12T22:46:38.074Z,59.31
2023-03-12T22:49:05.928Z,58.97
2023-03-12T22:51:33.729Z,58.85
2023-03-12T22:54:01.565Z,58.67
2023-03-12T22:56:29.317Z,58.49
2023-03-12T22:58:57.085Z,58.61
2023-03-12T23:01:24.950Z,58.64
2023-03-12T23:03:52.716Z,58.45
2023-03-12T23:06:20.381Z,58.36
2023-03-12T23:08:48.447Z,58.26
2023-03-12T23:11:16.235Z,58.16
2023-03-12T23:13:44.730Z,58.02
2023-03-12T23:16:12.608Z,58.29
2023-03-12T23:18:40.319Z,57.90
2023-03-12T23:21:08.093Z,57.89
2023-03-12T23:23:35.743Z,57.88
2023-03-12T23:26:03.856Z,57.73
2023-03-12T23:28:31.587Z,57.56
2023-03-12T23:30:59.343Z,57.53
2023-03-12T23:33:27.113Z,57.34
2023-03-12T23:35:54.990Z,57.61
2023-03-12T23:38:23.047Z,57.26
2023-03-12T23:40:51.022Z,57.38
2023-03-12T23:43:18.692Z,57.19
2023-03-12T23:45:46.727Z,57.24
2023-03-12T23:48:14.412Z,57.57
2023-03-12T23:50:42.385Z,57.30
2023-03-12T23:53:10.046Z,57.32
2023-03-12T23:55:37.706Z,57.14
2023-03-12T23:58:05.363Z,57.17
